sensor_id;sensor_type;location;lat;lon;timestamp;temperature;humidity
30250;DHT22;17064;47.974;13.826;2023-10-13T00:03:12;16.00;99.90
30250;DHT22;17064;47.974;13.826;2023-10-13T00:08:16;15.90;99.90
30250;DHT22;17064;47.974;13.826;2023-10-13T00:13:18;15.90;99.90
30250;DHT22;17064;47.974;13.826;2023-10-13T00:18:20;15.80;99.90
30250;DHT22;17064;47.974;13.826;2023-10-13T00:23:21;15.80;99.90
30250;DHT22;17064;47.974;13.826;2023-10-13T00:28:26;15.70;99.90
30250;DHT22;17064;47.974;13.826;2023-10-13T00:33:41;15.70;99.90
30250;DHT22;17064;47.974;13.826;2023-10-13T00:38:42;15.70;99.90
30250;DHT22;17064;47.974;13.826;2023-10-13T00:43:47;15.70;99.90
30250;DHT22;17064;47.974;13.826;2023-10-13T00:49:08;15.70;99.90
30250;DHT22;17064;47.974;13.826;2023-10-13T00:54:09;15.70;99.90
30250;DHT22;17064;47.974;13.826;2023-10-13T00:59:14;15.70;99.90
30250;DHT22;17064;47.974;13.826;2023-10-13T01:04:15;15.70;99.90
30250;DHT22;17064;47.974;13.826;2023-10-13T01:09:16;15.60;99.90
30250;DHT22;17064;47.974;13.826;2023-10-13T01:14:20;15.50;99.90
30250;DHT22;17064;47.974;13.826;2023-10-13T01:19:22;15.50;99.90
30250;DHT22;17064;47.974;13.826;2023-10-13T01:24:26;15.50;99.90
30250;DHT22;17064;47.974;13.826;2023-10-13T01:29:31;15.50;99.90
30250;DHT22;17064;47.974;13.826;2023-10-13T01:34:32;15.50;99.90
30250;DHT22;17064;47.974;13.826;2023-10-13T01:39:34;15.70;99.90
30250;DHT22;17064;47.974;13.826;2023-10-13T01:44:34;16.00;99.90
30250;DHT22;17064;47.974;13.826;2023-10-13T01:49:36;16.20;99.90
30250;DHT22;17064;47.974;13.826;2023-10-13T01:54:46;16.40;99.90
30250;DHT22;17064;47.974;13.826;2023-10-13T01:59:49;16.50;99.90
30250;DHT22;17064;47.974;13.826;2023-10-13T02:04:50;16.50;99.90
30250;DHT22;17064;47.974;13.826;2023-10-13T02:09:56;16.40;99.90
30250;DHT22;17064;47.974;13.826;2023-10-13T02:14:57;16.30;99.90
30250;DHT22;17064;47.974;13.826;2023-10-13T02:20:01;16.30;99.90
30250;DHT22;17064;47.974;13.826;2023-10-13T02:25:08;16.20;99.90
30250;DHT22;17064;47.974;13.826;2023-10-13T02:30:17;16.20;99.90
30250;DHT22;17064;47.974;13.826;2023-10-13T02:35:24;16.30;99.90
30250;DHT22;17064;47.974;13.826;2023-10-13T02:40:35;16.20;99.90
30250;DHT22;17064;47.974;13.826;2023-10-13T02:45:36;16.20;99.90
30250;DHT22;17064;47.974;13.826;2023-10-13T02:50:40;16.20;99.90
30250;DHT22;17064;47.974;13.826;2023-10-13T02:55:54;16.10;99.90
30250;DHT22;17064;47.974;13.826;2023-10-13T03:00:57;16.00;99.90
30250;DHT22;17064;47.974;13.826;2023-10-13T03:05:59;16.00;99.90
30250;DHT22;17064;47.974;13.826;2023-10-13T03:11:01;16.00;99.90
30250;DHT22;17064;47.974;13.826;2023-10-13T03:16:13;15.90;99.90
30250;DHT22;17064;47.974;13.826;2023-10-13T03:21:16;15.90;99.90
30250;DHT22;17064;47.974;13.826;2023-10-13T03:26:28;15.90;99.90
30250;DHT22;17064;47.974;13.826;2023-10-13T03:31:30;15.80;99.90
30250;DHT22;17064;47.974;13.826;2023-10-13T03:36:31;15.60;99.90
30250;DHT22;17064;47.974;13.826;2023-10-13T03:41:50;15.50;99.90
30250;DHT22;17064;47.974;13.826;2023-10-13T03:46:54;15.30;99.90
30250;DHT22;17064;47.974;13.826;2023-10-13T03:51:55;15.20;99.90
30250;DHT22;17064;47.974;13.826;2023-10-13T03:56:58;15.10;99.90
30250;DHT22;17064;47.974;13.826;2023-10-13T04:02:04;15.00;99.90
30250;DHT22;17064;47.974;13.826;2023-10-13T04:07:12;14.90;99.90
30250;DHT22;17064;47.974;13.826;2023-10-13T04:12:14;14.70;99.90
30250;DHT22;17064;47.974;13.826;2023-10-13T04:17:33;14.60;99.90
30250;DHT22;17064;47.974;13.826;2023-10-13T04:22:46;14.50;99.90
30250;DHT22;17064;47.974;13.826;2023-10-13T04:27:47;14.40;99.90
30250;DHT22;17064;47.974;13.826;2023-10-13T04:33:06;14.20;99.90
30250;DHT22;17064;47.974;13.826;2023-10-13T04:38:17;14.20;99.90
30250;DHT22;17064;47.974;13.826;2023-10-13T04:43:21;14.30;99.90
30250;DHT22;17064;47.974;13.826;2023-10-13T04:48:33;14.30;99.90
30250;DHT22;17064;47.974;13.826;2023-10-13T04:53:39;14.30;99.90
30250;DHT22;17064;47.974;13.826;2023-10-13T04:59:00;14.20;99.90
30250;DHT22;17064;47.974;13.826;2023-10-13T05:04:18;14.10;99.90
30250;DHT22;17064;47.974;13.826;2023-10-13T05:09:38;14.00;99.90
30250;DHT22;17064;47.974;13.826;2023-10-13T05:14:58;13.90;99.90
30250;DHT22;17064;47.974;13.826;2023-10-13T05:20:17;13.90;99.90
30250;DHT22;17064;47.974;13.826;2023-10-13T05:25:37;13.80;99.90
30250;DHT22;17064;47.974;13.826;2023-10-13T05:30:59;13.70;99.90
30250;DHT22;17064;47.974;13.826;2023-10-13T05:36:19;13.70;99.90
30250;DHT22;17064;47.974;13.826;2023-10-13T05:41:52;13.70;99.90
30250;DHT22;17064;47.974;13.826;2023-10-13T05:47:11;13.80;99.90
30250;DHT22;17064;47.974;13.826;2023-10-13T05:52:30;13.80;99.90
30250;DHT22;17064;47.974;13.826;2023-10-13T05:57:49;13.90;99.90
30250;DHT22;17064;47.974;13.826;2023-10-13T06:03:08;14.00;99.90
30250;DHT22;17064;47.974;13.826;2023-10-13T06:08:27;14.00;99.90
30250;DHT22;17064;47.974;13.826;2023-10-13T06:13:47;14.10;99.90
30250;DHT22;17064;47.974;13.826;2023-10-13T06:19:06;14.30;99.90
30250;DHT22;17064;47.974;13.826;2023-10-13T06:24:26;14.50;99.90
30250;DHT22;17064;47.974;13.826;2023-10-13T06:29:45;14.70;99.90
30250;DHT22;17064;47.974;13.826;2023-10-13T06:34:46;14.70;99.90
30250;DHT22;17064;47.974;13.826;2023-10-13T06:39:52;14.80;99.90
30250;DHT22;17064;47.974;13.826;2023-10-13T06:44:58;14.90;99.90
30250;DHT22;17064;47.974;13.826;2023-10-13T06:50:00;15.00;99.90
30250;DHT22;17064;47.974;13.826;2023-10-13T06:55:01;15.10;99.90
30250;DHT22;17064;47.974;13.826;2023-10-13T07:00:06;15.30;99.90
30250;DHT22;17064;47.974;13.826;2023-10-13T07:05:12;15.40;99.90
30250;DHT22;17064;47.974;13.826;2023-10-13T07:10:15;15.50;99.90
30250;DHT22;17064;47.974;13.826;2023-10-13T07:15:17;15.70;99.90
30250;DHT22;17064;47.974;13.826;2023-10-13T07:20:17;15.90;99.90
30250;DHT22;17064;47.974;13.826;2023-10-13T07:25:24;16.00;99.90
30250;DHT22;17064;47.974;13.826;2023-10-13T07:30:26;16.20;99.90
30250;DHT22;17064;47.974;13.826;2023-10-13T07:35:28;16.40;99.90
30250;DHT22;17064;47.974;13.826;2023-10-13T07:40:31;16.60;99.90
30250;DHT22;17064;47.974;13.826;2023-10-13T07:45:32;16.90;99.90
30250;DHT22;17064;47.974;13.826;2023-10-13T07:50:39;17.10;99.90
30250;DHT22;17064;47.974;13.826;2023-10-13T07:55:40;17.50;99.90
30250;DHT22;17064;47.974;13.826;2023-10-13T08:00:41;17.90;99.90
30250;DHT22;17064;47.974;13.826;2023-10-13T08:05:51;18.20;99.90
30250;DHT22;17064;47.974;13.826;2023-10-13T08:11:19;18.40;99.90
30250;DHT22;17064;47.974;13.826;2023-10-13T08:16:35;18.70;99.90
30250;DHT22;17064;47.974;13.826;2023-10-13T08:21:58;19.00;99.90
30250;DHT22;17064;47.974;13.826;2023-10-13T08:27:00;19.20;99.90
30250;DHT22;17064;47.974;13.826;2023-10-13T08:32:34;19.40;99.90
30250;DHT22;17064;47.974;13.826;2023-10-13T08:37:54;19.70;99.90
30250;DHT22;17064;47.974;13.826;2023-10-13T08:42:56;20.00;99.90
30250;DHT22;17064;47.974;13.826;2023-10-13T08:48:11;20.20;99.60
30250;DHT22;17064;47.974;13.826;2023-10-13T08:53:13;20.40;97.70
30250;DHT22;17064;47.974;13.826;2023-10-13T08:58:35;20.50;97.20
30250;DHT22;17064;47.974;13.826;2023-10-13T09:03:55;20.60;98.00
30250;DHT22;17064;47.974;13.826;2023-10-13T09:09:17;20.60;97.00
30250;DHT22;17064;47.974;13.826;2023-10-13T09:14:41;20.70;96.60
30250;DHT22;17064;47.974;13.826;2023-10-13T09:19:50;20.80;96.70
30250;DHT22;17064;47.974;13.826;2023-10-13T09:24:58;20.90;95.70
30250;DHT22;17064;47.974;13.826;2023-10-13T09:30:00;21.00;93.90
30250;DHT22;17064;47.974;13.826;2023-10-13T09:35:20;21.10;94.40
30250;DHT22;17064;47.974;13.826;2023-10-13T09:40:23;21.20;93.40
30250;DHT22;17064;47.974;13.826;2023-10-13T09:45:48;21.30;92.80
30250;DHT22;17064;47.974;13.826;2023-10-13T09:51:13;21.40;92.50
30250;DHT22;17064;47.974;13.826;2023-10-13T09:56:29;21.70;92.30
30250;DHT22;17064;47.974;13.826;2023-10-13T10:01:32;21.80;90.80
30250;DHT22;17064;47.974;13.826;2023-10-13T10:06:38;21.90;90.20
30250;DHT22;17064;47.974;13.826;2023-10-13T10:17:06;22.10;89.10
30250;DHT22;17064;47.974;13.826;2023-10-13T10:22:08;22.30;88.40
30250;DHT22;17064;47.974;13.826;2023-10-13T10:27:35;22.40;83.40
30250;DHT22;17064;47.974;13.826;2023-10-13T10:32:37;22.50;84.00
30250;DHT22;17064;47.974;13.826;2023-10-13T10:37:41;22.60;83.60
30250;DHT22;17064;47.974;13.826;2023-10-13T10:42:51;22.80;80.80
30250;DHT22;17064;47.974;13.826;2023-10-13T10:47:53;23.00;76.80
30250;DHT22;17064;47.974;13.826;2023-10-13T10:52:58;23.30;75.50
30250;DHT22;17064;47.974;13.826;2023-10-13T10:58:00;23.60;71.30
30250;DHT22;17064;47.974;13.826;2023-10-13T11:03:26;24.00;64.60
30250;DHT22;17064;47.974;13.826;2023-10-13T11:08:27;24.40;69.00
30250;DHT22;17064;47.974;13.826;2023-10-13T11:13:44;24.60;62.00
30250;DHT22;17064;47.974;13.826;2023-10-13T11:19:04;25.00;62.80
30250;DHT22;17064;47.974;13.826;2023-10-13T11:24:08;25.30;58.30
30250;DHT22;17064;47.974;13.826;2023-10-13T11:29:12;25.70;59.00
30250;DHT22;17064;47.974;13.826;2023-10-13T11:34:12;26.00;58.40
30250;DHT22;17064;47.974;13.826;2023-10-13T11:39:17;26.30;60.50
30250;DHT22;17064;47.974;13.826;2023-10-13T11:44:24;26.50;59.50
30250;DHT22;17064;47.974;13.826;2023-10-13T11:49:24;26.70;58.70
30250;DHT22;17064;47.974;13.826;2023-10-13T11:54:28;26.80;58.30
30250;DHT22;17064;47.974;13.826;2023-10-13T11:59:28;26.90;57.00
30250;DHT22;17064;47.974;13.826;2023-10-13T12:04:29;27.30;54.80
30250;DHT22;17064;47.974;13.826;2023-10-13T12:09:50;27.40;54.00
30250;DHT22;17064;47.974;13.826;2023-10-13T12:14:57;27.60;55.00
30250;DHT22;17064;47.974;13.826;2023-10-13T12:19:58;27.80;55.60
30250;DHT22;17064;47.974;13.826;2023-10-13T12:24:59;27.90;50.80
30250;DHT22;17064;47.974;13.826;2023-10-13T12:30:05;28.10;53.60
30250;DHT22;17064;47.974;13.826;2023-10-13T12:35:13;28.60;52.40
30250;DHT22;17064;47.974;13.826;2023-10-13T12:40:19;29.10;50.70
30250;DHT22;17064;47.974;13.826;2023-10-13T12:45:42;29.40;49.90
30250;DHT22;17064;47.974;13.826;2023-10-13T12:51:02;29.70;48.30
30250;DHT22;17064;47.974;13.826;2023-10-13T12:56:20;29.50;49.70
30250;DHT22;17064;47.974;13.826;2023-10-13T13:01:26;29.40;48.60
30250;DHT22;17064;47.974;13.826;2023-10-13T13:06:33;28.80;50.00
30250;DHT22;17064;47.974;13.826;2023-10-13T13:11:34;28.10;51.20
30250;DHT22;17064;47.974;13.826;2023-10-13T13:16:39;27.60;51.40
30250;DHT22;17064;47.974;13.826;2023-10-13T13:21:40;27.20;52.20
30250;DHT22;17064;47.974;13.826;2023-10-13T13:26:41;27.10;51.70
30250;DHT22;17064;47.974;13.826;2023-10-13T13:31:42;27.00;53.00
30250;DHT22;17064;47.974;13.826;2023-10-13T13:36:44;26.90;53.60
30250;DHT22;17064;47.974;13.826;2023-10-13T13:41:45;27.20;52.60
30250;DHT22;17064;47.974;13.826;2023-10-13T13:46:45;27.50;52.10
30250;DHT22;17064;47.974;13.826;2023-10-13T13:51:46;27.10;51.90
30250;DHT22;17064;47.974;13.826;2023-10-13T13:56:52;26.50;54.20
30250;DHT22;17064;47.974;13.826;2023-10-13T14:01:54;26.00;56.10
30250;DHT22;17064;47.974;13.826;2023-10-13T14:06:59;25.60;55.60
30250;DHT22;17064;47.974;13.826;2023-10-13T14:12:00;25.30;57.20
30250;DHT22;17064;47.974;13.826;2023-10-13T14:17:19;24.90;57.70
30250;DHT22;17064;47.974;13.826;2023-10-13T14:22:20;24.60;59.50
30250;DHT22;17064;47.974;13.826;2023-10-13T14:27:25;24.50;59.00
30250;DHT22;17064;47.974;13.826;2023-10-13T14:32:26;24.20;60.70
30250;DHT22;17064;47.974;13.826;2023-10-13T14:37:28;24.00;58.60
30250;DHT22;17064;47.974;13.826;2023-10-13T14:42:31;23.90;59.50
30250;DHT22;17064;47.974;13.826;2023-10-13T14:47:35;23.80;60.50
30250;DHT22;17064;47.974;13.826;2023-10-13T14:52:40;24.50;59.10
30250;DHT22;17064;47.974;13.826;2023-10-13T14:57:41;25.20;58.70
30250;DHT22;17064;47.974;13.826;2023-10-13T15:02:42;25.30;59.20
30250;DHT22;17064;47.974;13.826;2023-10-13T15:07:43;24.80;60.30
30250;DHT22;17064;47.974;13.826;2023-10-13T15:12:45;24.20;62.80
30250;DHT22;17064;47.974;13.826;2023-10-13T15:17:46;23.70;64.60
30250;DHT22;17064;47.974;13.826;2023-10-13T15:22:48;23.30;66.60
30250;DHT22;17064;47.974;13.826;2023-10-13T15:27:49;22.90;67.30
30250;DHT22;17064;47.974;13.826;2023-10-13T15:33:02;22.60;68.20
30250;DHT22;17064;47.974;13.826;2023-10-13T15:38:05;22.30;70.50
30250;DHT22;17064;47.974;13.826;2023-10-13T15:43:10;22.10;72.40
30250;DHT22;17064;47.974;13.826;2023-10-13T15:48:11;21.90;73.80
30250;DHT22;17064;47.974;13.826;2023-10-13T15:53:12;21.60;75.90
30250;DHT22;17064;47.974;13.826;2023-10-13T15:58:16;21.30;77.30
30250;DHT22;17064;47.974;13.826;2023-10-13T16:03:16;21.00;78.90
30250;DHT22;17064;47.974;13.826;2023-10-13T16:08:17;20.70;80.00
30250;DHT22;17064;47.974;13.826;2023-10-13T16:13:18;20.50;81.80
30250;DHT22;17064;47.974;13.826;2023-10-13T16:18:20;20.20;83.50
30250;DHT22;17064;47.974;13.826;2023-10-13T16:23:22;19.90;85.60
30250;DHT22;17064;47.974;13.826;2023-10-13T16:28:24;19.60;87.80
30250;DHT22;17064;47.974;13.826;2023-10-13T16:33:25;19.30;89.60
30250;DHT22;17064;47.974;13.826;2023-10-13T16:38:25;19.00;90.90
30250;DHT22;17064;47.974;13.826;2023-10-13T16:43:26;18.70;91.80
30250;DHT22;17064;47.974;13.826;2023-10-13T16:48:27;18.50;92.60
30250;DHT22;17064;47.974;13.826;2023-10-13T16:53:27;18.30;93.60
30250;DHT22;17064;47.974;13.826;2023-10-13T16:58:28;18.00;94.40
30250;DHT22;17064;47.974;13.826;2023-10-13T17:03:37;17.90;95.30
30250;DHT22;17064;47.974;13.826;2023-10-13T17:08:37;17.70;95.80
30250;DHT22;17064;47.974;13.826;2023-10-13T17:13:43;17.50;96.40
30250;DHT22;17064;47.974;13.826;2023-10-13T17:18:44;17.30;97.00
30250;DHT22;17064;47.974;13.826;2023-10-13T17:23:45;17.00;97.80
30250;DHT22;17064;47.974;13.826;2023-10-13T17:28:46;16.80;98.70
30250;DHT22;17064;47.974;13.826;2023-10-13T17:33:48;16.60;99.40
30250;DHT22;17064;47.974;13.826;2023-10-13T17:38:49;16.40;99.90
30250;DHT22;17064;47.974;13.826;2023-10-13T17:43:50;16.10;99.90
30250;DHT22;17064;47.974;13.826;2023-10-13T17:48:50;16.00;99.90
30250;DHT22;17064;47.974;13.826;2023-10-13T17:53:56;15.80;99.90
30250;DHT22;17064;47.974;13.826;2023-10-13T17:58:57;15.70;99.90
30250;DHT22;17064;47.974;13.826;2023-10-13T18:03:59;15.60;99.90
30250;DHT22;17064;47.974;13.826;2023-10-13T18:09:04;15.40;99.90
30250;DHT22;17064;47.974;13.826;2023-10-13T18:14:11;15.30;99.90
30250;DHT22;17064;47.974;13.826;2023-10-13T18:19:12;15.10;99.90
30250;DHT22;17064;47.974;13.826;2023-10-13T18:24:14;15.00;99.90
30250;DHT22;17064;47.974;13.826;2023-10-13T18:29:15;14.80;99.90
30250;DHT22;17064;47.974;13.826;2023-10-13T18:34:18;14.70;99.90
30250;DHT22;17064;47.974;13.826;2023-10-13T18:39:19;14.60;99.90
30250;DHT22;17064;47.974;13.826;2023-10-13T18:44:25;14.60;99.90
30250;DHT22;17064;47.974;13.826;2023-10-13T18:49:27;14.50;99.90
30250;DHT22;17064;47.974;13.826;2023-10-13T18:54:29;14.50;99.90
30250;DHT22;17064;47.974;13.826;2023-10-13T18:59:30;14.40;99.90
30250;DHT22;17064;47.974;13.826;2023-10-13T19:04:34;14.30;99.90
30250;DHT22;17064;47.974;13.826;2023-10-13T19:09:36;14.10;99.90
30250;DHT22;17064;47.974;13.826;2023-10-13T19:14:39;14.00;99.90
30250;DHT22;17064;47.974;13.826;2023-10-13T19:19:40;13.90;99.90
30250;DHT22;17064;47.974;13.826;2023-10-13T19:24:41;13.80;99.90
30250;DHT22;17064;47.974;13.826;2023-10-13T19:29:43;13.70;99.90
30250;DHT22;17064;47.974;13.826;2023-10-13T19:34:44;13.60;99.90
30250;DHT22;17064;47.974;13.826;2023-10-13T19:39:46;13.50;99.90
30250;DHT22;17064;47.974;13.826;2023-10-13T19:44:47;13.40;99.90
30250;DHT22;17064;47.974;13.826;2023-10-13T19:49:48;13.30;99.90
30250;DHT22;17064;47.974;13.826;2023-10-13T19:54:49;13.30;99.90
30250;DHT22;17064;47.974;13.826;2023-10-13T19:59:52;13.20;99.90
30250;DHT22;17064;47.974;13.826;2023-10-13T20:04:54;12.90;99.90
30250;DHT22;17064;47.974;13.826;2023-10-13T20:09:57;12.80;99.90
30250;DHT22;17064;47.974;13.826;2023-10-13T20:14:58;12.70;99.90
30250;DHT22;17064;47.974;13.826;2023-10-13T20:19:59;12.60;99.90
30250;DHT22;17064;47.974;13.826;2023-10-13T20:25:00;12.60;99.90
30250;DHT22;17064;47.974;13.826;2023-10-13T20:30:02;12.60;99.90
30250;DHT22;17064;47.974;13.826;2023-10-13T20:35:10;12.70;99.90
30250;DHT22;17064;47.974;13.826;2023-10-13T20:40:12;13.00;99.90
30250;DHT22;17064;47.974;13.826;2023-10-13T20:45:23;13.10;99.90
30250;DHT22;17064;47.974;13.826;2023-10-13T20:50:24;13.10;99.90
30250;DHT22;17064;47.974;13.826;2023-10-13T20:55:25;13.10;99.90
30250;DHT22;17064;47.974;13.826;2023-10-13T21:00:25;13.00;99.90
30250;DHT22;17064;47.974;13.826;2023-10-13T21:05:26;12.90;99.90
30250;DHT22;17064;47.974;13.826;2023-10-13T21:10:27;12.80;99.90
30250;DHT22;17064;47.974;13.826;2023-10-13T21:15:27;12.60;99.90
30250;DHT22;17064;47.974;13.826;2023-10-13T21:20:28;12.50;99.90
30250;DHT22;17064;47.974;13.826;2023-10-13T21:25:35;12.50;99.90
30250;DHT22;17064;47.974;13.826;2023-10-13T21:30:35;12.40;99.90
30250;DHT22;17064;47.974;13.826;2023-10-13T21:35:36;12.30;99.90
30250;DHT22;17064;47.974;13.826;2023-10-13T21:40:40;12.10;99.90
30250;DHT22;17064;47.974;13.826;2023-10-13T21:45:40;12.00;99.90
30250;DHT22;17064;47.974;13.826;2023-10-13T21:50:42;11.90;99.90
30250;DHT22;17064;47.974;13.826;2023-10-13T21:55:42;11.80;99.90
30250;DHT22;17064;47.974;13.826;2023-10-13T22:00:43;11.80;99.90
30250;DHT22;17064;47.974;13.826;2023-10-13T22:05:56;11.70;99.90
30250;DHT22;17064;47.974;13.826;2023-10-13T22:10:56;11.70;99.90
30250;DHT22;17064;47.974;13.826;2023-10-13T22:15:57;11.60;99.90
30250;DHT22;17064;47.974;13.826;2023-10-13T22:20:58;11.50;99.90
30250;DHT22;17064;47.974;13.826;2023-10-13T22:25:59;11.50;99.90
30250;DHT22;17064;47.974;13.826;2023-10-13T22:31:00;11.50;99.90
30250;DHT22;17064;47.974;13.826;2023-10-13T22:36:00;11.40;99.90
30250;DHT22;17064;47.974;13.826;2023-10-13T22:41:04;11.30;99.90
30250;DHT22;17064;47.974;13.826;2023-10-13T22:46:07;11.30;99.90
30250;DHT22;17064;47.974;13.826;2023-10-13T22:51:08;11.20;99.90
30250;DHT22;17064;47.974;13.826;2023-10-13T22:56:10;11.20;99.90
30250;DHT22;17064;47.974;13.826;2023-10-13T23:01:11;11.10;99.90
30250;DHT22;17064;47.974;13.826;2023-10-13T23:06:17;11.10;99.90
30250;DHT22;17064;47.974;13.826;2023-10-13T23:11:21;11.10;99.90
30250;DHT22;17064;47.974;13.826;2023-10-13T23:16:32;11.00;99.90
30250;DHT22;17064;47.974;13.826;2023-10-13T23:21:33;10.90;99.90
30250;DHT22;17064;47.974;13.826;2023-10-13T23:26:38;10.90;99.90
30250;DHT22;17064;47.974;13.826;2023-10-13T23:31:39;10.90;99.90
30250;DHT22;17064;47.974;13.826;2023-10-13T23:36:40;10.90;99.90
30250;DHT22;17064;47.974;13.826;2023-10-13T23:41:42;10.90;99.90
30250;DHT22;17064;47.974;13.826;2023-10-13T23:46:43;11.00;99.90
30250;DHT22;17064;47.974;13.826;2023-10-13T23:51:47;11.00;99.90
30250;DHT22;17064;47.974;13.826;2023-10-13T23:56:53;11.00;99.90
